Arlington, Oregon
Current Conditions -  °F | °C
As of 8:53 PM on Monday 26 Jan 2015 (Local Time) from KHRI Reporting Station
Moderate Fog Moderate Fog  
Wind Chill: 37°   Ceiling: 200
Heat Index: 37°   Visibility: 0.25mi
Dew Point: 36°   Wind: 3mph
Humidity: 96%   Direction: 30°NNE
Pressure: 30.03"   Gusts: NA
Location:  45.72°N, 120.2°W
Report Text: KHRI 270453Z AUTO 03003KT 1/4SM FG VV002 03/02 A3003 RMK AO2 SLP174 T00280022
Loading
Personal Weather Stations






























Interactive Weather Map New forecast layout! Learn more

10-Day Weather Forecast

Advertisements
Track Severe Weather on mobile